createdAt,value
2019-04-26T00:01:31.195Z,1
2019-04-26T00:02:24.912Z,1
2019-04-26T00:03:14.154Z,1
2019-04-26T00:04:50.689Z,1
2019-04-26T00:05:38.135Z,1
2019-04-26T00:07:20.706Z,1
2019-04-26T00:08:09.273Z,2
2019-04-26T00:08:56.762Z,2
2019-04-26T00:09:58.274Z,2
2019-04-26T00:10:33.769Z,1
2019-04-26T00:11:22.394Z,2
2019-04-26T00:12:10.835Z,2
2019-04-26T00:12:58.138Z,2
2019-04-26T00:13:46.461Z,2
2019-04-26T00:15:29.287Z,1
2019-04-26T00:16:16.818Z,1
2019-04-26T00:17:05.063Z,2
2019-04-26T00:17:53.345Z,1
2019-04-26T00:18:46.997Z,2
2019-04-26T00:20:24.182Z,1
2019-04-26T00:21:11.962Z,1
2019-04-26T00:22:00.264Z,2
2019-04-26T00:23:42.270Z,1
2019-04-26T00:25:18.902Z,2
2019-04-26T00:27:01.586Z,1
2019-04-26T00:27:49.177Z,1
2019-04-26T00:29:25.878Z,2
2019-04-26T00:31:07.819Z,2
2019-04-26T00:31:56.138Z,2
2019-04-26T00:34:21.763Z,1
2019-04-26T00:35:15.664Z,1
2019-04-26T00:36:03.028Z,2
2019-04-26T00:36:51.339Z,2
2019-04-26T00:37:39.631Z,2
2019-04-26T00:39:24.853Z,2
2019-04-26T00:40:09.911Z,2
2019-04-26T00:40:58.174Z,2
2019-04-26T00:41:46.510Z,2
2019-04-26T00:42:34.761Z,2
2019-04-26T00:44:17.342Z,2
2019-04-26T00:45:05.017Z,2
2019-04-26T00:45:53.331Z,2
2019-04-26T00:46:41.625Z,2
2019-04-26T00:47:35.273Z,2
2019-04-26T00:48:24.105Z,2
2019-04-26T00:49:12.590Z,2
2019-04-26T00:50:00.170Z,3
2019-04-26T00:50:48.462Z,3
2019-04-26T00:51:42.140Z,2
2019-04-26T00:52:31.032Z,2
2019-04-26T00:53:19.642Z,2
2019-04-26T00:54:06.999Z,2
2019-04-26T00:55:48.990Z,2
2019-04-26T00:58:15.359Z,2
2019-04-26T00:59:02.788Z,2
2019-04-26T00:59:55.846Z,2
2019-04-26T01:00:44.156Z,2
2019-04-26T01:02:20.778Z,2
2019-04-26T01:03:09.044Z,2
2019-04-26T01:04:11.431Z,2
2019-04-26T01:04:50.993Z,2
2019-04-26T01:05:39.297Z,2
2019-04-26T01:06:27.615Z,2
2019-04-26T01:08:57.889Z,2
2019-04-26T01:09:46.690Z,2
2019-04-26T01:10:34.459Z,2
2019-04-26T01:12:16.786Z,2
2019-04-26T01:13:04.728Z,2
2019-04-26T01:13:53.063Z,2
2019-04-26T01:14:41.908Z,2
2019-04-26T01:15:29.639Z,3
2019-04-26T01:15:41.860Z,3
2019-04-26T01:16:17.445Z,3
2019-04-26T01:17:05.046Z,3
2019-04-26T01:17:53.318Z,3
2019-04-26T01:18:42.140Z,3
2019-04-26T01:19:29.905Z,3
2019-04-26T01:22:00.219Z,3
2019-04-26T01:22:48.459Z,3
2019-04-26T01:23:36.730Z,3
2019-04-26T01:24:30.935Z,3
2019-04-26T01:26:06.983Z,3
2019-04-26T01:26:55.280Z,4
2019-04-26T01:27:43.583Z,3
2019-04-26T01:28:37.227Z,4
2019-04-26T01:29:26.119Z,3
2019-04-26T01:30:13.874Z,3
2019-04-26T01:31:02.116Z,3
2019-04-26T01:31:50.400Z,4
2019-04-26T01:33:32.349Z,4
2019-04-26T01:35:57.799Z,4
2019-04-26T01:36:50.915Z,4
2019-04-26T01:37:39.196Z,4
2019-04-26T01:38:27.695Z,4
2019-04-26T01:40:04.102Z,5
2019-04-26T01:40:58.324Z,4
2019-04-26T01:41:46.044Z,4
2019-04-26T01:42:34.319Z,4
2019-04-26T01:43:22.732Z,5
2019-04-26T01:44:10.898Z,4
2019-04-26T01:45:05.115Z,5
2019-04-26T01:45:52.860Z,5
2019-04-26T01:47:29.460Z,5
2019-04-26T01:49:11.424Z,5
2019-04-26T01:49:59.725Z,5
2019-04-26T01:50:48.548Z,5
2019-04-26T01:52:25.654Z,5
2019-04-26T01:53:18.236Z,6
2019-04-26T01:54:06.522Z,6
2019-04-26T01:54:54.803Z,6
2019-04-26T01:56:31.973Z,6
2019-04-26T01:57:25.235Z,6
2019-04-26T01:58:13.333Z,6
2019-04-26T01:59:01.615Z,6
2019-04-26T01:59:49.901Z,7
2019-04-26T02:00:38.728Z,6
2019-04-26T02:01:31.846Z,7
2019-04-26T02:02:20.152Z,6
2019-04-26T02:03:08.395Z,7
2019-04-26T02:04:45.008Z,7
2019-04-26T02:06:32.026Z,7
2019-04-26T02:07:06.856Z,7
2019-04-26T02:07:09.027Z,7
2019-04-26T02:07:57.345Z,7
2019-04-26T02:09:39.230Z,8
2019-04-26T02:10:28.581Z,8
2019-04-26T02:11:16.354Z,8
2019-04-26T02:12:52.388Z,8
2019-04-26T02:13:45.998Z,8
2019-04-26T02:14:34.286Z,9
2019-04-26T02:15:23.037Z,9
2019-04-26T02:16:11.657Z,9
2019-04-26T02:16:59.136Z,9
2019-04-26T02:17:52.779Z,9
2019-04-26T02:18:41.074Z,9
2019-04-26T02:19:29.522Z,9
2019-04-26T02:20:18.185Z,10
2019-04-26T02:21:59.539Z,9
2019-04-26T02:22:44.063Z,9
2019-04-26T02:22:46.294Z,10
2019-04-26T02:24:24.804Z,10
2019-04-26T02:25:11.155Z,10
2019-04-26T02:26:05.347Z,10
2019-04-26T02:27:41.464Z,9
2019-04-26T02:28:30.366Z,9
2019-04-26T02:29:17.874Z,10
2019-04-26T02:30:59.812Z,9
2019-04-26T02:32:37.231Z,10
2019-04-26T02:33:25.330Z,9
2019-04-26T02:34:18.309Z,10
2019-04-26T02:35:54.912Z,9
2019-04-26T02:36:57.317Z,9
2019-04-26T02:37:34.124Z,9
2019-04-26T02:38:25.799Z,9
2019-04-26T02:39:13.305Z,9
2019-04-26T02:41:38.178Z,9
2019-04-26T02:42:32.965Z,9
2019-04-26T02:43:20.637Z,10
2019-04-26T02:44:08.339Z,9
2019-04-26T02:45:44.926Z,10
2019-04-26T02:46:38.561Z,10
2019-04-26T02:47:28.918Z,10
2019-04-26T02:48:15.671Z,10
2019-04-26T02:49:03.352Z,10
2019-04-26T02:49:51.635Z,10
2019-04-26T02:50:45.275Z,10
2019-04-26T02:53:10.155Z,10
2019-04-26T02:53:58.947Z,10
2019-04-26T02:54:51.997Z,10
2019-04-26T02:55:42.531Z,11
2019-04-26T02:56:30.360Z,11
2019-04-26T02:57:16.841Z,11
2019-04-26T02:58:05.645Z,11
2019-04-26T02:58:58.726Z,11
2019-04-26T02:59:47.019Z,10
2019-04-26T03:00:35.892Z,10
2019-04-26T03:03:05.510Z,11
2019-04-26T03:03:54.333Z,11
2019-04-26T03:04:42.013Z,11
2019-04-26T03:07:12.273Z,12
2019-04-26T03:08:48.762Z,12
2019-04-26T03:10:25.365Z,12
2019-04-26T03:11:19.732Z,13
2019-04-26T03:12:07.233Z,13
2019-04-26T03:12:55.509Z,13
2019-04-26T03:13:43.901Z,13
2019-04-26T03:14:33.034Z,14
2019-04-26T03:15:26.244Z,13
2019-04-26T03:16:14.004Z,14
2019-04-26T03:17:50.635Z,14
2019-04-26T03:19:34.113Z,13
2019-04-26T03:20:20.676Z,13
2019-04-26T03:21:09.477Z,14
2019-04-26T03:21:57.244Z,14
2019-04-26T03:22:45.492Z,14
2019-04-26T03:23:55.593Z,14
2019-04-26T03:24:27.436Z,14
2019-04-26T03:25:16.274Z,14
2019-04-26T03:26:03.951Z,15
2019-04-26T03:26:52.214Z,14
2019-04-26T03:27:45.909Z,15
2019-04-26T03:29:22.387Z,14
2019-04-26T03:29:43.831Z,14
2019-04-26T03:30:18.529Z,14
2019-04-26T03:30:53.352Z,14
2019-04-26T03:35:56.884Z,15
2019-04-26T03:36:42.469Z,15
2019-04-26T03:37:28.944Z,16
2019-04-26T03:38:17.840Z,17
2019-04-26T03:39:05.480Z,17
2019-04-26T03:39:59.132Z,17
2019-04-26T03:40:47.375Z,18
2019-04-26T03:41:37.104Z,18
2019-04-26T03:44:06.341Z,18
2019-04-26T03:45:44.202Z,18
2019-04-26T03:47:18.889Z,18
2019-04-26T03:48:12.509Z,18
2019-04-26T03:49:49.089Z,19
2019-04-26T03:52:19.862Z,22
2019-04-26T03:53:07.527Z,23
2019-04-26T03:55:32.346Z,24
2019-04-26T03:56:25.945Z,23
2019-04-26T03:57:14.242Z,24
2019-04-26T03:58:03.031Z,24
2019-04-26T03:58:50.760Z,24
2019-04-26T03:59:40.902Z,25
2019-04-26T04:00:32.611Z,26
2019-04-26T04:01:20.876Z,25
2019-04-26T04:02:09.660Z,26
2019-04-26T04:04:41.151Z,25
2019-04-26T04:05:27.540Z,26
2019-04-26T04:06:15.797Z,25
2019-04-26T04:07:05.128Z,26
2019-04-26T04:07:52.911Z,26
2019-04-26T04:08:46.734Z,25
2019-04-26T04:09:34.227Z,26
2019-04-26T04:10:22.474Z,25
2019-04-26T04:11:10.711Z,25
2019-04-26T04:12:11.301Z,25
2019-04-26T04:12:52.630Z,25
2019-04-26T04:13:44.477Z,26
2019-04-26T04:14:29.140Z,26
2019-04-26T04:15:17.407Z,26
2019-04-26T04:16:59.840Z,26
2019-04-26T04:17:49.761Z,26
2019-04-26T04:18:36.832Z,27
2019-04-26T04:19:24.089Z,26
2019-04-26T04:20:12.330Z,26
2019-04-26T04:21:06.558Z,26
2019-04-26T04:21:48.258Z,27
2019-04-26T04:22:34.778Z,27
2019-04-26T04:24:11.375Z,27
2019-04-26T04:25:04.912Z,26
2019-04-26T04:25:53.345Z,27
2019-04-26T04:26:42.905Z,27
2019-04-26T04:27:30.274Z,27
2019-04-26T04:28:17.983Z,27
2019-04-26T04:29:11.639Z,27
2019-04-26T04:29:59.825Z,27
2019-04-26T04:32:24.656Z,28
2019-04-26T04:33:18.855Z,28
2019-04-26T04:34:06.513Z,29
2019-04-26T04:34:54.754Z,29
2019-04-26T04:35:44.335Z,28
2019-04-26T04:37:03.051Z,28
2019-04-26T04:38:09.947Z,28
2019-04-26T04:39:11.398Z,28
2019-04-26T04:39:46.517Z,29
2019-04-26T04:40:33.643Z,29
2019-04-26T04:41:27.267Z,30
2019-04-26T04:42:15.518Z,30
2019-04-26T04:43:04.412Z,29
2019-04-26T04:44:42.313Z,30
2019-04-26T04:45:33.973Z,30
2019-04-26T04:46:22.202Z,30
2019-04-26T04:47:58.705Z,30
2019-04-26T04:48:49.240Z,31
2019-04-26T04:49:41.173Z,31
2019-04-26T04:51:17.111Z,31
2019-04-26T04:52:53.621Z,31
2019-04-26T04:53:47.841Z,31
2019-04-26T04:55:24.291Z,30
2019-04-26T04:57:00.874Z,30
2019-04-26T04:57:53.941Z,29
2019-04-26T04:58:43.550Z,28
2019-04-26T04:59:30.458Z,28
2019-04-26T05:00:19.327Z,28
2019-04-26T05:01:07.003Z,28
2019-04-26T05:02:00.753Z,28
2019-04-26T05:02:48.865Z,27
2019-04-26T05:03:37.122Z,27
2019-04-26T05:04:25.918Z,27
2019-04-26T05:05:13.621Z,28
2019-04-26T05:06:55.527Z,27
2019-04-26T05:07:43.925Z,26
2019-04-26T05:09:20.319Z,26
2019-04-26T05:11:02.946Z,26
2019-04-26T05:11:50.504Z,27
2019-04-26T05:12:38.757Z,27
2019-04-26T05:14:20.647Z,28
2019-04-26T05:15:08.917Z,29
2019-04-26T05:15:57.685Z,30
2019-04-26T05:16:46.479Z,30
2019-04-26T05:17:33.658Z,30
2019-04-26T05:18:27.267Z,31
2019-04-26T05:20:03.826Z,33
2019-04-26T05:20:53.331Z,33
2019-04-26T05:21:40.314Z,33
2019-04-26T05:22:33.929Z,32
2019-04-26T05:23:22.192Z,33
2019-04-26T05:24:10.451Z,34
2019-04-26T05:24:59.295Z,33
2019-04-26T05:25:48.043Z,34
2019-04-26T05:27:28.844Z,33
2019-04-26T05:29:05.354Z,32
2019-04-26T05:29:54.120Z,33
2019-04-26T05:32:24.356Z,32
2019-04-26T05:33:12.033Z,31
2019-04-26T05:34:00.320Z,30
2019-04-26T05:34:54.842Z,30
2019-04-26T05:35:42.166Z,30
2019-04-26T05:36:31.071Z,29
2019-04-26T05:37:18.709Z,29
2019-04-26T05:38:18.065Z,30
2019-04-26T05:39:00.908Z,29
2019-04-26T05:39:49.218Z,29
2019-04-26T05:40:37.632Z,29
2019-04-26T05:41:25.411Z,30
2019-04-26T05:42:13.653Z,30
2019-04-26T05:43:07.253Z,30
2019-04-26T05:43:51.859Z,31
2019-04-26T05:44:40.595Z,31
2019-04-26T05:45:28.261Z,31
2019-04-26T05:46:16.502Z,30
2019-04-26T05:47:10.112Z,30
2019-04-26T05:48:08.362Z,30
2019-04-26T05:48:47.156Z,30
2019-04-26T05:50:23.165Z,30
2019-04-26T05:53:41.565Z,29
2019-04-26T05:54:29.807Z,30
2019-04-26T05:56:11.729Z,30
2019-04-26T05:57:01.068Z,31
2019-04-26T05:59:30.158Z,31
2019-04-26T06:00:18.399Z,31
2019-04-26T06:01:06.649Z,30
2019-04-26T06:01:54.919Z,30
2019-04-26T06:03:37.374Z,30
2019-04-26T06:04:25.071Z,29
2019-04-26T06:05:13.347Z,28
2019-04-26T06:06:04.278Z,28
2019-04-26T06:07:43.530Z,27
2019-04-26T06:08:32.283Z,27
2019-04-26T06:10:08.285Z,26
2019-04-26T06:10:56.536Z,27
2019-04-26T06:13:26.747Z,26
2019-04-26T06:14:14.997Z,27
2019-04-26T06:15:58.065Z,25
2019-04-26T06:16:45.169Z,25
2019-04-26T06:18:21.708Z,25
2019-04-26T06:20:03.630Z,24
2019-04-26T06:20:52.893Z,25
2019-04-26T06:22:28.962Z,24
2019-04-26T06:23:16.627Z,23
2019-04-26T06:24:11.043Z,23
2019-04-26T06:26:26.204Z,19
2019-04-26T06:28:08.138Z,19
2019-04-26T06:28:56.411Z,18
2019-04-26T06:29:45.200Z,18
2019-04-26T06:30:44.955Z,18
2019-04-26T06:31:21.163Z,18
2019-04-26T06:33:06.001Z,16
2019-04-26T06:33:51.321Z,16
2019-04-26T06:34:40.150Z,15
2019-04-26T06:35:27.902Z,15
2019-04-26T06:36:21.903Z,15
2019-04-26T06:37:09.799Z,14
2019-04-26T06:37:58.057Z,14
2019-04-26T06:38:46.938Z,14
2019-04-26T06:39:34.606Z,14
2019-04-26T06:41:16.521Z,13
2019-04-26T06:42:05.122Z,12
2019-04-26T06:42:54.722Z,12
2019-04-26T06:43:41.941Z,12
2019-04-26T06:44:34.946Z,11
2019-04-26T06:45:23.252Z,11
2019-04-26T06:46:11.532Z,11
2019-04-26T06:46:59.879Z,10
2019-04-26T06:49:30.587Z,9
2019-04-26T06:50:18.293Z,9
2019-04-26T06:51:41.892Z,9
2019-04-26T06:51:53.209Z,9
2019-04-26T06:52:46.867Z,9
2019-04-26T06:53:35.168Z,8
2019-04-26T06:54:24.025Z,8
2019-04-26T06:55:11.668Z,7
2019-04-26T06:56:53.619Z,7
2019-04-26T06:57:41.881Z,7
2019-04-26T06:58:30.187Z,7
2019-04-26T06:59:19.068Z,7
2019-04-26T07:01:01.096Z,7
2019-04-26T07:01:48.692Z,7
2019-04-26T07:03:25.263Z,7
2019-04-26T07:05:07.181Z,8
2019-04-26T07:05:56.099Z,6
2019-04-26T07:06:43.801Z,6
2019-04-26T07:08:17.091Z,6
2019-04-26T07:09:11.523Z,6
2019-04-26T07:10:46.847Z,6
2019-04-26T07:11:35.773Z,6
2019-04-26T07:12:23.377Z,7
2019-04-26T07:13:17.040Z,6
2019-04-26T07:14:53.639Z,6
2019-04-26T07:16:30.184Z,6
2019-04-26T07:18:12.918Z,6
2019-04-26T07:19:48.741Z,5
2019-04-26T07:20:36.993Z,5
2019-04-26T07:22:18.977Z,5
2019-04-26T07:23:07.975Z,5
2019-04-26T07:24:44.366Z,5
2019-04-26T07:25:37.456Z,5
2019-04-26T07:28:06.367Z,5
2019-04-26T07:28:50.575Z,5
2019-04-26T07:29:44.217Z,5
2019-04-26T07:32:09.660Z,6
2019-04-26T07:32:57.343Z,5
2019-04-26T07:33:51.003Z,6
2019-04-26T07:34:39.259Z,5
2019-04-26T07:35:27.530Z,5
2019-04-26T07:36:16.343Z,5
2019-04-26T07:37:57.710Z,5
2019-04-26T07:38:45.983Z,6
2019-04-26T07:40:22.636Z,6
2019-04-26T07:41:11.475Z,6
2019-04-26T07:42:05.250Z,6
2019-04-26T07:44:29.402Z,6
2019-04-26T07:47:47.874Z,6
2019-04-26T07:52:44.048Z,6
2019-04-26T07:53:31.238Z,6
2019-04-26T07:54:25.505Z,6
2019-04-26T07:56:02.347Z,6
2019-04-26T07:56:38.841Z,6
2019-04-26T07:56:41.071Z,6
2019-04-26T07:57:29.352Z,6
2019-04-26T07:58:23.011Z,7
2019-04-26T07:59:12.778Z,6
2019-04-26T07:59:59.558Z,6
2019-04-26T08:00:47.839Z,6
2019-04-26T08:02:29.813Z,6
2019-04-26T08:03:18.060Z,6
2019-04-26T08:04:07.294Z,6
2019-04-26T08:05:42.916Z,7
2019-04-26T08:06:36.516Z,6
2019-04-26T08:07:24.796Z,6
2019-04-26T08:08:13.118Z,6
2019-04-26T08:09:01.943Z,7
2019-04-26T08:09:59.555Z,7
2019-04-26T08:10:43.270Z,7
2019-04-26T08:11:31.537Z,6
2019-04-26T08:13:08.135Z,6
2019-04-26T08:13:57.236Z,6
2019-04-26T08:14:50.076Z,6
2019-04-26T08:15:38.325Z,7
2019-04-26T08:16:26.594Z,7
2019-04-26T08:18:56.866Z,7
2019-04-26T08:19:45.913Z,7
2019-04-26T08:21:21.696Z,7
2019-04-26T08:22:17.974Z,7
2019-04-26T08:23:09.010Z,7
2019-04-26T08:24:40.174Z,7
2019-04-26T08:26:17.281Z,7
2019-04-26T08:27:18.822Z,7
2019-04-26T08:27:58.663Z,7
2019-04-26T08:28:46.929Z,7
2019-04-26T08:29:35.209Z,7
2019-04-26T08:30:24.083Z,7
2019-04-26T08:31:21.161Z,7
2019-04-26T08:32:05.407Z,7
2019-04-26T08:33:48.516Z,6
2019-04-26T08:34:33.623Z,5
2019-04-26T08:36:12.804Z,5
2019-04-26T08:37:01.883Z,5
2019-04-26T08:37:48.744Z,6
2019-04-26T08:38:37.027Z,6
2019-04-26T08:39:44.453Z,6
2019-04-26T08:40:27.545Z,6
2019-04-26T08:41:08.245Z,5
2019-04-26T08:42:43.784Z,5
2019-04-26T08:43:37.405Z,5
2019-04-26T08:44:25.714Z,4
2019-04-26T08:45:15.279Z,4
2019-04-26T08:46:50.559Z,4
2019-04-26T08:47:45.905Z,5
2019-04-26T08:48:32.517Z,4
2019-04-26T08:49:20.749Z,4
2019-04-26T09:05:12.110Z,4
2019-04-26T17:55:07.857Z,68
2019-04-26T17:55:54.795Z,66
2019-04-26T17:56:41.984Z,57
2019-04-26T17:57:34.657Z,55
2019-04-26T17:58:27.475Z,52
2019-04-26T18:00:47.577Z,48
2019-04-26T18:01:46.814Z,46
2019-04-26T18:10:13.565Z,5
2019-04-26T18:14:50.451Z,2
2019-04-26T18:15:39.989Z,1
2019-04-26T18:16:32.893Z,1
2019-04-26T18:17:20.407Z,0
2019-04-26T18:18:09.643Z,0
2019-04-26T18:18:56.852Z,1
2019-04-26T18:19:45.799Z,1
2019-04-26T18:19:53.595Z,1
2019-04-26T18:20:37.489Z,1
2019-04-26T18:21:22.980Z,0
2019-04-26T18:22:12.945Z,1
2019-04-26T18:22:59.200Z,1
2019-04-26T18:23:48.714Z,1
2019-04-26T18:24:41.038Z,1
2019-04-26T18:25:29.231Z,1
2019-04-26T18:26:21.438Z,1
2019-04-26T18:27:05.715Z,1
2019-04-26T18:27:54.440Z,1
2019-04-26T18:28:51.853Z,1
2019-04-26T18:29:35.715Z,1
2019-04-26T18:30:23.923Z,1
2019-04-26T18:31:12.145Z,0
2019-04-26T18:32:03.708Z,0
2019-04-26T18:32:53.958Z,1
2019-04-26T18:33:42.616Z,0
2019-04-26T18:34:34.265Z,1
2019-04-26T18:35:18.623Z,0
2019-04-26T18:36:07.413Z,1
2019-04-26T18:37:01.932Z,2
2019-04-26T18:37:48.642Z,8
2019-04-26T18:38:36.877Z,10
2019-04-26T18:40:13.328Z,10
2019-04-26T18:41:07.471Z,11
2019-04-26T18:42:43.444Z,10
2019-04-26T18:43:32.770Z,10
2019-04-26T18:44:19.787Z,10
2019-04-26T18:45:13.894Z,11
2019-04-26T18:46:03.317Z,11
2019-04-26T18:46:49.826Z,11
2019-04-26T18:47:38.027Z,11
2019-04-26T18:48:26.252Z,11
2019-04-26T18:49:22.794Z,11
2019-04-26T18:50:08.649Z,10
2019-04-26T18:51:48.301Z,11
2019-04-26T18:52:33.064Z,11
2019-04-26T18:53:26.318Z,10
2019-04-26T18:54:17.864Z,11
2019-04-26T18:55:05.523Z,11
2019-04-26T18:55:50.980Z,10
2019-04-26T18:56:40.566Z,11
2019-04-26T18:57:33.491Z,11
2019-04-26T18:58:21.015Z,11
2019-04-26T18:59:11.849Z,14
2019-04-26T19:00:45.690Z,16
2019-04-26T19:01:41.827Z,16
2019-04-26T19:02:27.473Z,15
2019-04-26T19:03:16.146Z,16
2019-04-26T19:04:10.274Z,14
2019-04-26T19:04:52.986Z,13
2019-04-26T19:05:45.752Z,12
2019-04-26T19:06:37.878Z,13
2019-04-26T19:07:32.052Z,12
2019-04-26T19:08:12.639Z,13
2019-04-26T19:09:02.401Z,12
2019-04-26T19:10:04.691Z,12
2019-04-26T19:11:28.665Z,10
2019-04-26T19:12:18.461Z,12
2019-04-26T19:13:07.371Z,10
2019-04-26T19:13:58.696Z,10
2019-04-26T19:14:49.784Z,10
2019-04-26T19:15:40.225Z,10
2019-04-26T19:16:23.385Z,9
2019-04-26T19:17:05.185Z,9
2019-04-26T19:17:07.876Z,10
2019-04-26T19:18:04.360Z,10
2019-04-26T19:18:49.177Z,9
2019-04-26T19:19:37.394Z,9
2019-04-26T19:20:25.645Z,9
2019-04-26T19:21:14.414Z,8
2019-04-26T19:22:09.462Z,8
2019-04-26T19:22:55.684Z,8
2019-04-26T19:23:43.908Z,8
2019-04-26T19:24:32.622Z,8
2019-04-26T19:24:32.981Z,8
2019-04-26T19:25:23.322Z,8
2019-04-26T19:26:15.045Z,7
2019-04-26T19:27:04.165Z,8
2019-04-26T19:27:22.300Z,8
2019-04-26T19:27:50.238Z,7
2019-04-26T19:28:39.810Z,7
2019-04-26T19:29:33.662Z,7
2019-04-26T19:30:18.854Z,6
2019-04-26T19:31:07.007Z,6
2019-04-26T19:31:56.677Z,7
2019-04-26T19:32:43.464Z,7
2019-04-26T19:33:32.230Z,7
2019-04-26T19:34:26.001Z,6
2019-04-26T19:35:14.518Z,5
2019-04-26T19:36:01.724Z,1
2019-04-26T19:37:38.216Z,1
2019-04-26T19:38:32.948Z,1
2019-04-26T19:39:22.812Z,1
2019-04-26T19:40:56.552Z,1
2019-04-26T19:41:44.739Z,1
2019-04-26T19:42:38.310Z,1
2019-04-26T19:43:32.469Z,1
2019-04-26T19:44:18.859Z,1
2019-04-26T19:45:14.212Z,1
2019-04-26T19:45:52.031Z,1
2019-04-26T19:46:44.792Z,1
2019-04-26T19:47:35.443Z,1
2019-04-26T19:48:22.732Z,1
2019-04-26T19:49:09.445Z,1
2019-04-26T19:49:57.692Z,1
2019-04-26T19:50:52.693Z,1
2019-04-26T19:51:41.488Z,1
2019-04-26T19:52:27.754Z,1
2019-04-26T19:53:17.729Z,1
2019-04-26T19:54:04.166Z,1
2019-04-26T19:54:57.761Z,0
2019-04-26T19:55:47.670Z,0
2019-04-26T19:56:34.232Z,0
2019-04-26T19:57:23.774Z,0
2019-04-26T19:58:16.163Z,0
2019-04-26T19:59:04.254Z,0
2019-04-26T19:59:53.034Z,0
2019-04-26T20:00:43.530Z,0
2019-04-26T20:01:28.921Z,0
2019-04-26T20:02:17.148Z,0
2019-04-26T20:03:13.366Z,0
2019-04-26T20:03:59.532Z,0
2019-04-26T20:04:47.181Z,0
2019-04-26T20:05:36.293Z,0
2019-04-26T20:06:26.640Z,0
2019-04-26T20:07:17.237Z,0
2019-04-26T20:08:06.172Z,0
2019-04-26T20:08:53.678Z,0
2019-04-26T20:09:42.047Z,0
2019-04-26T20:10:30.111Z,0
2019-04-26T20:11:23.727Z,0
2019-04-26T20:12:12.490Z,0
2019-04-26T20:13:00.138Z,0
2019-04-26T20:13:51.743Z,0
2019-04-26T20:14:06.981Z,0
2019-04-26T20:14:47.147Z,0
2019-04-26T20:15:31.672Z,0
2019-04-26T20:16:18.783Z,0
2019-04-26T20:17:06.509Z,0
2019-04-26T20:17:59.855Z,0
2019-04-26T20:18:42.930Z,0
2019-04-26T20:19:37.588Z,0
2019-04-26T20:20:27.859Z,0
2019-04-26T20:21:15.377Z,0
2019-04-26T20:22:01.917Z,0
2019-04-26T20:22:49.383Z,0
2019-04-26T20:23:47.065Z,0
2019-04-26T20:24:31.807Z,0
2019-04-26T20:25:19.422Z,0
2019-04-26T20:26:09.011Z,0
2019-04-26T20:26:55.870Z,0
2019-04-26T20:27:49.447Z,0
2019-04-26T20:28:38.251Z,1
2019-04-26T20:28:47.639Z,1
2019-04-26T20:29:17.141Z,1
2019-04-26T20:30:05.381Z,1
2019-04-26T20:30:57.883Z,1
2019-04-26T20:31:47.845Z,1
2019-04-26T20:32:36.012Z,1
2019-04-26T20:33:26.690Z,1
2019-04-26T20:34:15.259Z,1
2019-04-26T20:35:00.119Z,1
2019-04-26T20:35:57.464Z,2
2019-04-26T20:36:47.616Z,2
2019-04-26T20:37:30.115Z,2
2019-04-26T20:38:18.350Z,8
2019-04-26T20:39:06.608Z,11
2019-04-26T20:40:16.223Z,14
2019-04-26T20:40:49.090Z,18
2019-04-26T20:41:36.634Z,21
2019-04-26T20:43:23.285Z,23
2019-04-26T20:44:09.736Z,33
2019-04-26T20:44:54.894Z,39
2019-04-26T20:46:34.360Z,48
2019-04-26T20:47:19.550Z,57
2019-04-26T20:48:13.154Z,63
2019-04-26T20:49:07.538Z,64
2019-04-26T20:50:00.781Z,75
2019-04-26T20:50:37.798Z,79
2019-04-26T20:51:26.022Z,82
2019-04-26T20:52:23.186Z,83
2019-04-26T20:53:07.836Z,83
2019-04-26T20:53:56.615Z,85
2019-04-26T20:54:46.554Z,85
2019-04-26T20:55:34.626Z,83
2019-04-26T20:56:26.042Z,82
2019-04-26T20:57:14.280Z,81
2019-04-26T20:58:06.979Z,74
2019-04-26T20:58:52.302Z,80
2019-04-26T20:59:38.894Z,78
2019-04-26T21:00:36.479Z,80
2019-04-26T21:01:22.269Z,80
2019-04-26T21:02:09.476Z,78
2019-04-26T21:03:01.348Z,83
2019-04-26T21:03:46.157Z,82
2019-04-26T21:04:38.904Z,81
2019-04-26T21:05:27.121Z,81
2019-04-26T21:06:15.897Z,80
2019-04-26T21:07:06.721Z,81
2019-04-26T21:07:51.781Z,80
2019-04-26T21:08:45.388Z,80
2019-04-26T21:09:36.421Z,77
2019-04-26T21:10:25.682Z,79
2019-04-26T21:11:11.203Z,78
2019-04-26T21:11:58.201Z,74
2019-04-26T21:12:54.813Z,74
2019-04-26T21:13:41.538Z,77
2019-04-26T21:14:31.520Z,74
2019-04-26T21:15:20.309Z,77
2019-04-26T21:16:10.869Z,79
2019-04-26T21:16:58.272Z,74
2019-04-26T21:17:46.473Z,78
2019-04-26T21:18:39.982Z,78
2019-04-26T21:19:22.912Z,78
2019-04-26T21:20:11.129Z,80
2019-04-26T21:21:06.051Z,79
2019-04-26T21:21:53.032Z,79
2019-04-26T21:22:41.990Z,75
2019-04-26T21:23:35.078Z,80
2019-04-26T21:24:19.726Z,79
2019-04-26T21:25:11.802Z,75
2019-04-26T21:25:59.397Z,79
2019-04-26T21:26:52.786Z,77
2019-04-26T21:27:35.993Z,75
2019-04-26T21:28:24.092Z,75
2019-04-26T21:29:20.189Z,73
2019-04-26T21:30:05.886Z,71
2019-04-26T21:30:54.639Z,73
2019-04-26T21:31:45.664Z,72
2019-04-26T21:32:32.789Z,75
2019-04-26T21:33:04.991Z,75
2019-04-26T21:33:21.645Z,74
2019-04-26T21:34:12.516Z,73
2019-04-26T21:34:58.626Z,76
2019-04-26T21:35:46.301Z,76
2019-04-26T21:36:40.830Z,79
2019-04-26T21:37:28.125Z,79
2019-04-26T21:38:16.343Z,79
2019-04-26T21:39:07.439Z,78
2019-04-26T21:39:53.241Z,76
2019-04-26T21:40:40.986Z,77
2019-04-26T21:41:34.557Z,75
2019-04-26T21:42:25.574Z,77
2019-04-26T21:43:11.580Z,76
2019-04-26T21:43:59.218Z,76
2019-04-26T21:44:51.285Z,75
2019-04-26T21:45:41.041Z,75
2019-04-26T21:46:29.241Z,69
2019-04-26T21:47:17.980Z,70
2019-04-26T21:48:06.930Z,66
2019-04-26T21:48:53.912Z,68
2019-04-26T21:49:47.463Z,63
2019-04-26T21:50:38.660Z,54
2019-04-26T21:51:24.490Z,55
2019-04-26T21:52:13.676Z,53
2019-04-26T21:53:03.459Z,52
2019-04-26T21:53:53.966Z,49
2019-04-26T21:54:43.212Z,49
2019-04-26T21:55:35.358Z,49
2019-04-26T21:56:18.572Z,46
2019-04-26T21:57:06.799Z,50
2019-04-26T21:58:00.856Z,45
2019-04-26T21:58:48.575Z,46
2019-04-26T21:59:40.847Z,45
2019-04-26T22:00:25.032Z,39
2019-04-26T22:01:15.577Z,38
2019-04-26T22:02:06.823Z,37
2019-04-26T22:02:55.053Z,39
2019-04-26T22:03:47.404Z,37
2019-04-26T22:04:36.344Z,32
2019-04-26T22:05:19.748Z,32
2019-04-26T22:06:14.246Z,31
2019-04-26T22:07:05.193Z,30
2019-04-26T22:07:50.311Z,25
2019-04-26T22:08:37.940Z,23
2019-04-26T22:09:28.514Z,24
2019-04-26T22:10:19.757Z,25
2019-04-26T22:11:07.954Z,24
2019-04-26T22:11:56.757Z,23
2019-04-26T22:12:45.080Z,21
2019-04-26T22:13:33.261Z,21
2019-04-26T22:14:26.248Z,21
2019-04-26T22:15:14.469Z,20
2019-04-26T22:16:03.591Z,17
2019-04-26T22:16:50.854Z,17
2019-04-26T22:17:40.686Z,17
2019-04-26T22:18:33.030Z,17
2019-04-26T22:19:23.207Z,16
2019-04-26T22:20:12.867Z,16
2019-04-26T22:20:57.341Z,15
2019-04-26T22:21:45.582Z,17
2019-04-26T22:22:41.496Z,15
2019-04-26T22:23:27.364Z,15
2019-04-26T22:24:16.150Z,16
2019-04-26T22:25:03.936Z,16
2019-04-26T22:25:52.030Z,15
2019-04-26T22:26:48.070Z,15
2019-04-26T22:27:33.823Z,15
2019-04-26T22:28:23.554Z,14
2019-04-26T22:29:13.815Z,15
2019-04-26T22:29:58.451Z,14
2019-04-26T22:30:53.443Z,14
2019-04-26T22:31:41.463Z,13
2019-04-26T22:32:29.031Z,13
2019-04-26T22:33:16.717Z,11
2019-04-26T22:34:07.509Z,11
2019-04-26T22:34:58.492Z,12
2019-04-26T22:35:50.477Z,12
2019-04-26T22:36:35.698Z,12
2019-04-26T22:37:29.529Z,12
2019-04-26T22:38:11.364Z,11
2019-04-26T22:38:26.591Z,11
2019-04-26T22:39:01.781Z,10
2019-04-26T22:39:45.426Z,9
2019-04-26T22:40:34.156Z,6
2019-04-26T22:41:24.458Z,6
2019-04-26T22:42:02.691Z,6
2019-04-26T22:42:54.568Z,6
2019-04-26T22:43:44.144Z,6
2019-04-26T22:44:34.044Z,6
2019-04-26T22:45:19.232Z,6
2019-04-26T22:46:07.435Z,5
2019-04-26T22:47:03.592Z,6
2019-04-26T22:47:49.237Z,6
2019-04-26T22:48:38.087Z,6
2019-04-26T22:49:25.687Z,6
2019-04-26T22:50:20.685Z,6
2019-04-26T22:51:07.503Z,6
2019-04-26T22:51:55.712Z,6
2019-04-26T22:52:51.357Z,6
2019-04-26T22:53:32.858Z,5
2019-04-26T22:54:20.395Z,5
2019-04-26T22:55:17.675Z,5
2019-04-26T22:56:03.335Z,5
2019-04-26T22:56:50.942Z,5
2019-04-26T22:57:38.610Z,5
2019-04-26T22:58:28.779Z,5
2019-04-26T22:59:20.435Z,5
2019-04-26T23:00:08.658Z,5
2019-04-26T23:00:58.447Z,5
2019-04-26T23:01:48.639Z,5
2019-04-26T23:02:33.281Z,5
2019-04-26T23:03:26.909Z,5
2019-04-26T23:04:16.229Z,5
2019-04-26T23:05:05.806Z,5
2019-04-26T23:05:53.358Z,5
2019-04-26T23:06:42.493Z,5
2019-04-26T23:07:33.388Z,5
2019-04-26T23:08:21.563Z,5
2019-04-26T23:09:11.631Z,5
2019-04-26T23:09:58.043Z,5
2019-04-26T23:10:46.217Z,5
2019-04-26T23:11:43.458Z,5
2019-04-26T23:12:28.539Z,6
2019-04-26T23:13:16.936Z,5
2019-04-26T23:14:04.467Z,5
2019-04-26T23:14:55.082Z,5
2019-04-26T23:15:46.273Z,5
2019-04-26T23:16:34.485Z,5
2019-04-26T23:17:27.162Z,5